Time;durP1;ratioP1;P1;durP2;ratioP2;P2;SDS_P1;SDS_P2;PMS_P1;PMS_P2;Temp;Humidity;BMP_temperature;BMP_pressure;BME280_temperature;BME280_humidity;BME280_pressure;Samples;Min_cycle;Max_cycle;Signal;HPM_P1;HPM_P2
2023/08/10 00:01:12;;;;;;;;;13.00;11.00;;;;;19.24;45.24;99400.19;5071660;28;8950;-80
2023/08/10 00:03:42;;;;;;;;;12.00;11.40;;;;;19.30;45.04;99407.81;5088540;28;9574;-75
2023/08/10 00:06:11;;;;;;;;;13.40;13.00;;;;;19.35;44.87;99396.88;5088376;28;8907;-79
2023/08/10 00:08:40;;;;;;;;;11.40;10.80;;;;;19.45;44.42;99403.38;5087720;28;8834;-77
2023/08/10 00:11:09;;;;;;;;;11.80;11.80;;;;;19.45;44.19;99406.88;5071813;28;8842;-77
2023/08/10 00:13:38;;;;;;;;;11.60;11.60;;;;;19.43;43.93;99398.13;5088675;28;8936;-76
2023/08/10 00:16:06;;;;;;;;;10.00;9.80;;;;;19.46;43.88;99400.63;5056685;28;8948;-77
2023/08/10 00:18:36;;;;;;;;;11.00;11.00;;;;;19.50;43.70;99396.81;5089121;28;8843;-76
2023/08/10 00:21:06;;;;;;;;;12.20;12.20;;;;;19.54;43.55;99396.63;5072190;28;8843;-76
2023/08/10 00:23:35;;;;;;;;;11.00;11.00;;;;;19.53;43.21;99387.78;5089002;28;8844;-77
2023/08/10 00:26:04;;;;;;;;;14.00;13.00;;;;;19.40;42.64;99389.47;5089060;28;9665;-78
2023/08/10 00:28:33;;;;;;;;;12.00;10.40;;;;;19.41;42.42;99396.50;5089381;28;8852;-76
2023/08/10 00:31:03;;;;;;;;;11.60;11.60;;;;;19.42;42.59;99385.72;5072011;28;8859;-78
2023/08/10 00:33:32;;;;;;;;;11.60;10.40;;;;;19.46;42.61;99391.75;5088563;28;8848;-76
2023/08/10 00:36:07;;;;;;;;;10.20;10.20;;;;;19.48;42.26;99389.84;5038657;28;8906;-76
2023/08/10 00:38:38;;;;;;;;;12.00;12.00;;;;;19.39;41.95;99385.94;5071389;28;8843;-78
2023/08/10 00:41:07;;;;;;;;;13.40;11.40;;;;;19.43;41.85;99394.63;5005860;28;8972;-81
2023/08/10 00:43:36;;;;;;;;;14.20;13.40;;;;;19.49;41.75;99392.41;5070845;28;8894;-77
2023/08/10 00:46:07;;;;;;;;;12.20;10.80;;;;;19.18;42.08;99397.88;5067645;28;8843;-77
2023/08/10 00:48:36;;;;;;;;;12.60;12.60;;;;;18.62;42.96;99400.19;5051650;28;8873;-77
2023/08/10 00:51:06;;;;;;;;;11.60;10.60;;;;;18.14;44.55;99401.03;5016695;28;8898;-76
2023/08/10 00:53:36;;;;;;;;;11.40;11.40;;;;;17.81;45.86;99401.00;5067076;28;8848;-79
2023/08/10 00:56:07;;;;;;;;;10.40;10.40;;;;;17.70;46.77;99400.72;5050604;28;9710;-82
2023/08/10 00:58:36;;;;;;;;;9.80;9.00;;;;;17.74;46.77;99400.50;5067338;28;8939;-82
2023/08/10 01:01:05;;;;;;;;;11.00;10.20;;;;;17.63;47.06;99408.19;5050928;28;8848;-76
2023/08/10 01:03:34;;;;;;;;;9.60;9.40;;;;;17.51;47.24;99409.69;5067634;28;8890;-77
2023/08/10 01:06:11;;;;;;;;;11.80;11.20;;;;;17.64;47.47;99401.91;5077012;28;8882;-77
2023/08/10 01:08:47;;;;;;;;;11.20;11.00;;;;;17.91;46.54;99401.38;5068095;28;8857;-77
2023/08/10 01:11:24;;;;;;;;;8.40;8.20;;;;;18.20;45.76;99399.84;5067310;28;8957;-77
2023/08/10 01:14:03;;;;;;;;;8.20;7.80;;;;;18.32;45.23;99406.28;5067268;28;8840;-78
2023/08/10 01:16:34;;;;;;;;;10.20;9.80;;;;;18.44;44.63;99407.38;5050794;28;8851;-79
2023/08/10 01:19:09;;;;;;;;;7.80;7.80;;;;;18.59;44.51;99405.69;5050621;28;8851;-77
2023/08/10 01:21:51;;;;;;;;;10.00;9.00;;;;;18.39;44.77;99406.81;5067883;28;8852;-75
2023/08/10 01:24:27;;;;;;;;;9.80;9.80;;;;;18.33;45.29;99408.88;5098195;28;8837;-80
2023/08/10 01:26:58;;;;;;;;;10.40;9.20;;;;;17.80;46.72;99412.59;5108596;28;8849;-77
2023/08/10 01:29:28;;;;;;;;;12.00;10.20;;;;;17.57;47.68;99413.78;5108745;28;8857;-79
2023/08/10 01:31:57;;;;;;;;;11.00;9.80;;;;;17.59;47.78;99419.91;5058433;28;8971;-78
2023/08/10 01:34:26;;;;;;;;;9.00;9.00;;;;;17.90;46.79;99412.97;5092347;28;8844;-78
2023/08/10 01:36:55;;;;;;;;;8.20;8.20;;;;;18.12;46.28;99412.72;5108501;28;9595;-77
2023/08/10 01:39:24;;;;;;;;;10.20;10.00;;;;;18.30;45.89;99417.00;5092017;28;8887;-78
2023/08/10 01:41:53;;;;;;;;;10.80;10.80;;;;;18.16;46.16;99408.94;5070891;28;9680;-76
2023/08/10 01:44:23;;;;;;;;;10.20;10.00;;;;;17.73;46.50;99404.09;5070274;28;8890;-84
2023/08/10 01:46:54;;;;;;;;;9.00;9.00;;;;;17.88;46.62;99407.72;5094338;28;8865;-76
2023/08/10 01:49:25;;;;;;;;;9.60;8.00;;;;;17.41;47.38;99408.44;5110235;28;8853;-80
2023/08/10 01:51:55;;;;;;;;;9.80;9.80;;;;;17.49;46.77;99405.38;5091949;28;8847;-81
2023/08/10 01:54:24;;;;;;;;;5.40;4.00;;;;;17.18;47.78;99415.75;5108522;28;8868;-76
2023/08/10 01:56:53;;;;;;;;;10.60;9.80;;;;;17.26;47.84;99409.22;5108154;28;8880;-77
2023/08/10 01:59:23;;;;;;;;;9.80;9.60;;;;;17.53;47.51;99406.94;5108874;28;8925;-81
2023/08/10 02:01:52;;;;;;;;;8.40;7.40;;;;;17.67;46.82;99412.38;5108295;28;8975;-77
2023/08/10 02:04:21;;;;;;;;;7.00;7.00;;;;;17.85;46.27;99410.53;5108249;28;9661;-78
2023/08/10 02:06:50;;;;;;;;;8.00;8.00;;;;;17.98;46.09;99408.09;5108912;28;8833;-76
2023/08/10 02:09:19;;;;;;;;;5.60;5.60;;;;;18.04;45.55;99409.59;5091974;28;9591;-79
2023/08/10 02:11:48;;;;;;;;;8.00;8.00;;;;;18.23;45.13;99410.31;5108182;28;8833;-76
2023/08/10 02:14:18;;;;;;;;;8.80;8.80;;;;;17.97;45.81;99407.25;5105524;28;8831;-79
2023/08/10 02:16:48;;;;;;;;;9.40;7.80;;;;;17.92;46.67;99406.63;5075717;28;8839;-77
2023/08/10 02:19:17;;;;;;;;;9.00;9.00;;;;;17.56;47.72;99415.59;5078809;28;8851;-77
2023/08/10 02:21:46;;;;;;;;;10.00;9.00;;;;;17.36;48.96;99418.44;5070679;28;8939;-77
2023/08/10 02:24:15;;;;;;;;;10.00;9.60;;;;;17.57;48.05;99413.78;5070644;28;8870;-77
2023/08/10 02:26:44;;;;;;;;;10.40;9.60;;;;;17.74;48.38;99411.13;5036623;28;8854;-77
2023/08/10 02:29:13;;;;;;;;;10.20;9.40;;;;;17.59;49.10;99409.28;5079595;28;8846;-82
2023/08/10 02:31:42;;;;;;;;;10.40;10.40;;;;;17.02;51.32;99421.91;5072068;28;8843;-79
2023/08/10 02:34:13;;;;;;;;;11.00;11.00;;;;;16.82;52.71;99407.81;5078512;28;8973;-79
2023/08/10 02:36:42;;;;;;;;;9.60;9.60;;;;;16.51;53.70;99411.97;5075000;28;8879;-79
2023/08/10 02:39:11;;;;;;;;;10.00;10.00;;;;;16.08;55.16;99416.59;5091149;28;8877;-76
2023/08/10 02:41:40;;;;;;;;;10.40;9.60;;;;;16.05;55.39;99421.16;5073164;28;8855;-77
2023/08/10 02:44:09;;;;;;;;;9.20;9.20;;;;;15.57;56.45;99432.06;5089432;28;8861;-77
2023/08/10 02:46:37;;;;;;;;;10.00;9.20;;;;;15.54;56.57;99429.53;5020575;28;8897;-75
2023/08/10 02:49:06;;;;;;;;;10.60;10.60;;;;;15.51;57.00;99427.03;5071609;28;8884;-75
2023/08/10 02:51:36;;;;;;;;;9.00;9.00;;;;;15.58;57.18;99432.91;5071917;28;8862;-76
2023/08/10 02:54:06;;;;;;;;;9.60;8.60;;;;;15.73;56.46;99423.47;5071476;28;8958;-77
2023/08/10 02:56:34;;;;;;;;;8.60;8.60;;;;;16.09;54.83;99423.59;5071362;28;8869;-76
2023/08/10 02:59:04;;;;;;;;;7.40;7.40;;;;;16.13;54.74;99433.13;5071139;28;8830;-74
2023/08/10 03:01:33;;;;;;;;;8.00;7.80;;;;;16.36;53.53;99421.47;5049811;28;8971;-76
2023/08/10 03:04:02;;;;;;;;;10.40;9.80;;;;;15.96;55.02;99433.94;5050373;28;8857;-76
2023/08/10 03:06:30;;;;;;;;;9.60;9.60;;;;;16.01;54.83;99436.34;5053019;28;9598;-77
2023/08/10 03:09:02;;;;;;;;;9.60;9.60;;;;;15.94;55.35;99442.84;5052337;28;8840;-79
2023/08/10 03:11:31;;;;;;;;;8.40;8.40;;;;;16.02;55.04;99446.03;5052199;28;8855;-75
2023/08/10 03:14:00;;;;;;;;;10.00;10.00;;;;;16.11;54.87;99439.44;5068875;28;8879;-77
2023/08/10 03:16:31;;;;;;;;;8.80;8.80;;;;;16.11;54.91;99455.34;5068805;28;8856;-78
2023/08/10 03:19:00;;;;;;;;;7.00;7.00;;;;;16.21;54.53;99449.56;5065331;28;8922;-76
2023/08/10 03:21:30;;;;;;;;;10.00;8.00;;;;;16.54;53.50;99451.59;5089598;28;8862;-75
2023/08/10 03:24:01;;;;;;;;;14.20;12.40;;;;;16.58;53.32;99453.19;5089084;28;8853;-76
2023/08/10 03:26:29;;;;;;;;;9.60;9.60;;;;;16.85;52.55;99465.19;5072886;28;8958;-78
2023/08/10 03:28:59;;;;;;;;;13.20;13.20;;;;;17.07;51.95;99462.38;5039564;28;8858;-76
2023/08/10 03:31:29;;;;;;;;;10.80;9.00;;;;;16.95;52.36;99470.00;5071815;28;8915;-76
2023/08/10 03:33:58;;;;;;;;;9.20;8.20;;;;;16.94;52.50;99464.75;5088603;28;8834;-74
2023/08/10 03:36:27;;;;;;;;;9.00;9.00;;;;;16.67;53.50;99464.31;5071951;28;8829;-75
2023/08/10 03:38:56;;;;;;;;;6.60;6.60;;;;;16.78;53.04;99465.50;5071157;28;8850;-76
2023/08/10 03:41:27;;;;;;;;;8.60;8.60;;;;;16.76;53.21;99467.38;5104601;28;8878;-78
2023/08/10 03:43:56;;;;;;;;;7.60;7.20;;;;;16.97;52.76;99469.94;5053786;28;8861;-78
2023/08/10 03:46:25;;;;;;;;;9.20;8.20;;;;;16.99;52.84;99468.91;5103458;28;9013;-76
2023/08/10 03:48:54;;;;;;;;;10.60;10.60;;;;;16.96;52.44;99478.81;5106787;28;8863;-76
2023/08/10 03:51:23;;;;;;;;;13.00;12.20;;;;;16.99;52.87;99484.84;5056058;28;8831;-75
2023/08/10 03:53:51;;;;;;;;;34.80;32.20;;;;;17.00;52.75;99486.59;5089667;28;8867;-76
2023/08/10 03:56:22;;;;;;;;;9.40;9.40;;;;;17.03;52.35;99480.25;5072670;28;8990;-78
2023/08/10 03:58:53;;;;;;;;;10.00;8.20;;;;;16.85;53.14;99489.09;5090321;28;8848;-76
2023/08/10 04:01:22;;;;;;;;;12.60;12.60;;;;;16.74;53.83;99490.47;5074082;28;8847;-77
2023/08/10 04:03:51;;;;;;;;;8.00;7.60;;;;;17.07;52.90;99491.59;5088347;28;8849;-78
2023/08/10 04:06:22;;;;;;;;;8.80;8.80;;;;;16.96;53.32;99495.59;5109640;28;8863;-77
2023/08/10 04:08:51;;;;;;;;;54.75;44.75;;;;;16.96;53.91;99500.06;5109992;28;9602;-77
2023/08/10 04:11:19;;;;;;;;;9.80;9.00;;;;;16.80;54.73;99508.75;5122354;27;8825;-74
2023/08/10 04:13:49;;;;;;;;;10.80;10.60;;;;;16.95;54.43;99504.53;5111060;28;8869;-79
2023/08/10 04:16:19;;;;;;;;;10.00;10.00;;;;;16.93;54.65;99498.44;5092293;28;8849;-75
2023/08/10 04:18:48;;;;;;;;;7.60;7.40;;;;;16.93;54.39;99497.56;5127076;27;8859;-76
2023/08/10 04:21:17;;;;;;;;;9.60;9.60;;;;;16.97;54.62;99501.81;5109935;28;8945;-76
2023/08/10 04:23:46;;;;;;;;;11.60;11.60;;;;;17.00;54.34;99505.16;5103788;28;8848;-76
2023/08/10 04:26:15;;;;;;;;;9.20;9.20;;;;;17.02;54.44;99509.53;5098446;28;8929;-76
2023/08/10 04:28:44;;;;;;;;;9.40;9.40;;;;;17.02;54.60;99509.53;5075911;28;8879;-77
2023/08/10 04:31:13;;;;;;;;;10.00;9.00;;;;;17.09;54.37;99516.28;5090437;28;8871;-78
2023/08/10 04:33:44;;;;;;;;;13.80;12.80;;;;;16.96;55.09;99516.00;5072565;28;8844;-75
2023/08/10 04:36:13;;;;;;;;;10.40;10.00;;;;;17.03;54.70;99513.91;5090350;28;8851;-79
2023/08/10 04:38:42;;;;;;;;;10.40;8.80;;;;;16.83;55.28;99504.25;5090947;28;8847;-77
2023/08/10 04:41:10;;;;;;;;;11.00;9.60;;;;;16.93;55.07;99505.53;5067723;28;8860;-75
2023/08/10 04:43:39;;;;;;;;;10.00;10.00;;;;;16.83;55.63;99522.81;5074639;28;8868;-76
2023/08/10 04:46:09;;;;;;;;;13.80;13.80;;;;;16.92;55.22;99535.66;5070273;28;8907;-76
2023/08/10 04:48:38;;;;;;;;;22.40;22.00;;;;;17.06;55.23;99525.25;5071355;28;8858;-79
2023/08/10 04:51:08;;;;;;;;;17.80;17.40;;;;;17.16;54.82;99523.88;5070879;28;9713;-78
2023/08/10 04:53:37;;;;;;;;;9.20;9.20;;;;;16.87;55.12;99527.94;5087645;28;8854;-78
2023/08/10 04:56:06;;;;;;;;;11.80;11.80;;;;;17.09;55.17;99526.91;5086986;28;8843;-77
2023/08/10 04:58:35;;;;;;;;;11.00;10.00;;;;;17.11;54.86;99522.38;5084985;28;8840;-76
2023/08/10 05:01:04;;;;;;;;;12.60;12.60;;;;;17.26;54.42;99526.09;5096096;28;8826;-77
2023/08/10 05:03:33;;;;;;;;;14.40;10.80;;;;;17.23;54.14;99524.44;5069997;28;8988;-79
2023/08/10 05:06:04;;;;;;;;;9.20;9.20;;;;;17.28;54.03;99534.84;5053817;28;8826;-78
2023/08/10 05:08:35;;;;;;;;;10.40;10.40;;;;;17.35;54.09;99534.47;5087571;28;9595;-77
2023/08/10 05:11:03;;;;;;;;;13.80;13.20;;;;;17.32;54.40;99531.09;5092370;28;8840;-77
2023/08/10 05:13:34;;;;;;;;;12.80;11.80;;;;;17.26;54.28;99531.41;5110474;28;8849;-77
2023/08/10 05:16:03;;;;;;;;;14.80;12.40;;;;;17.28;54.59;99529.53;5108259;28;9606;-78
2023/08/10 05:18:33;;;;;;;;;11.20;10.80;;;;;17.33;54.13;99544.31;5108545;28;8855;-76
2023/08/10 05:21:04;;;;;;;;;13.20;11.60;;;;;17.36;54.04;99549.50;5109662;28;9625;-79
2023/08/10 05:23:35;;;;;;;;;13.60;11.20;;;;;17.54;53.68;99549.53;5090395;28;9010;-76
2023/08/10 05:26:04;;;;;;;;;11.60;9.60;;;;;17.58;53.45;99548.44;5108267;28;9574;-75
2023/08/10 05:28:33;;;;;;;;;9.60;7.00;;;;;17.69;53.02;99559.38;5096574;28;8869;-77
2023/08/10 05:31:01;;;;;;;;;9.00;9.00;;;;;17.72;52.66;99551.25;5089560;28;8878;-77
2023/08/10 05:33:30;;;;;;;;;12.40;12.40;;;;;17.87;52.75;99557.59;5087425;28;8990;-78
2023/08/10 05:35:59;;;;;;;;;12.00;11.20;;;;;18.07;52.11;99559.25;5087767;28;8882;-78
2023/08/10 05:38:28;;;;;;;;;11.80;10.80;;;;;18.25;51.84;99568.09;5053758;28;8832;-75
2023/08/10 05:40:58;;;;;;;;;14.20;13.60;;;;;18.42;51.39;99569.84;5103389;28;8901;-74
2023/08/10 05:43:27;;;;;;;;;13.20;12.60;;;;;18.62;51.05;99562.59;5070918;28;8844;-79
2023/08/10 05:45:56;;;;;;;;;12.60;12.60;;;;;18.81;50.64;99555.34;5088583;28;8898;-76
2023/08/10 05:48:25;;;;;;;;;14.20;13.20;;;;;18.95;49.72;99557.25;5068764;28;8864;-75
2023/08/10 05:50:53;;;;;;;;;11.80;11.80;;;;;18.98;49.68;99557.06;5086538;28;8854;-77
2023/08/10 05:53:23;;;;;;;;;13.40;13.00;;;;;18.89;49.99;99561.13;5087053;28;8857;-77
2023/08/10 05:55:51;;;;;;;;;11.80;11.00;;;;;19.03;49.50;99562.16;5070351;28;8850;-78
2023/08/10 05:58:24;;;;;;;;;13.20;11.60;;;;;19.06;49.72;99567.28;5070181;28;8884;-75
2023/08/10 06:00:53;;;;;;;;;12.40;12.40;;;;;19.09;49.17;99562.66;5087687;28;8942;-75
2023/08/10 06:03:22;;;;;;;;;13.00;13.00;;;;;19.07;49.25;99575.22;5087370;28;8933;-77
2023/08/10 06:05:51;;;;;;;;;13.20;13.20;;;;;19.21;49.27;99581.56;5084658;28;8878;-75
2023/08/10 06:08:20;;;;;;;;;16.60;15.80;;;;;19.34;48.83;99582.59;5090564;28;8853;-76
2023/08/10 06:10:51;;;;;;;;;12.60;11.60;;;;;19.35;48.71;99581.66;5090305;28;8919;-77
2023/08/10 06:13:20;;;;;;;;;10.80;10.80;;;;;19.42;48.46;99576.81;5075584;28;8887;-72
2023/08/10 06:15:50;;;;;;;;;14.20;13.60;;;;;19.46;48.63;99584.56;5083053;28;8884;-75
2023/08/10 06:18:19;;;;;;;;;11.40;11.00;;;;;19.50;48.51;99596.75;5088031;28;8899;-76
2023/08/10 06:20:48;;;;;;;;;9.80;9.80;;;;;19.40;47.84;99602.69;5124608;27;8865;-77
2023/08/10 06:23:18;;;;;;;;;9.80;9.80;;;;;19.36;47.75;99612.69;5101027;28;8859;-76
2023/08/10 06:25:47;;;;;;;;;11.00;10.60;;;;;19.39;47.54;99607.19;5108360;28;8845;-76
2023/08/10 06:28:16;;;;;;;;;10.60;10.60;;;;;19.19;47.96;99608.28;5109651;28;8824;-74
2023/08/10 06:30:45;;;;;;;;;10.80;10.40;;;;;19.19;48.22;99605.63;5048683;28;8881;-75
2023/08/10 06:33:15;;;;;;;;;12.20;11.40;;;;;19.06;48.71;99607.25;5033025;28;8932;-74
2023/08/10 06:35:44;;;;;;;;;12.80;11.40;;;;;19.09;48.69;99599.97;5029442;28;8974;-75
2023/08/10 06:38:13;;;;;;;;;11.40;11.00;;;;;19.13;48.98;99612.16;5029180;28;8853;-74
2023/08/10 06:40:42;;;;;;;;;13.40;13.00;;;;;19.02;49.11;99605.72;5045463;28;8880;-77
2023/08/10 06:43:11;;;;;;;;;12.80;12.00;;;;;19.11;48.81;99608.72;5029539;28;8852;-75
2023/08/10 06:45:46;;;;;;;;;12.20;11.80;;;;;19.10;49.10;99614.13;5028599;28;8856;-76
2023/08/10 06:48:17;;;;;;;;;11.60;11.60;;;;;19.23;48.73;99614.31;5028493;28;8969;-76
2023/08/10 06:50:46;;;;;;;;;10.80;10.80;;;;;19.26;48.78;99615.00;5012706;28;8884;-75
2023/08/10 06:53:15;;;;;;;;;12.40;11.80;;;;;19.35;48.84;99620.75;5012726;28;8848;-74
2023/08/10 06:55:45;;;;;;;;;13.80;13.60;;;;;19.42;48.92;99624.78;4966396;28;8844;-76
2023/08/10 06:58:14;;;;;;;;;13.60;13.60;;;;;19.57;48.54;99628.44;5029189;28;8877;-75
2023/08/10 07:01:04;;;;;;;;;9.00;8.20;;;;;19.68;48.06;99626.00;4985466;28;9058;-74
2023/08/10 07:03:36;;;;;;;;;16.60;15.60;;;;;19.80;48.02;99635.97;5089211;28;8859;-77
2023/08/10 07:06:05;;;;;;;;;18.00;17.40;;;;;19.77;48.69;99632.63;5091631;28;8889;-76
2023/08/10 07:08:34;;;;;;;;;13.60;13.40;;;;;19.48;48.59;99640.44;5093814;28;8999;-75
2023/08/10 07:11:03;;;;;;;;;16.80;16.80;;;;;19.56;48.14;99643.59;5111390;28;8852;-76
2023/08/10 07:13:33;;;;;;;;;15.40;14.60;;;;;19.49;48.42;99644.84;5104985;28;8853;-76
2023/08/10 07:16:02;;;;;;;;;14.40;14.00;;;;;19.63;48.26;99655.63;5111012;28;9014;-77
2023/08/10 07:18:31;;;;;;;;;13.20;12.40;;;;;19.75;48.46;99654.06;5096259;27;8872;-75
2023/08/10 07:21:02;;;;;;;;;12.60;12.20;;;;;19.95;48.48;99652.03;5102875;28;8841;-74
2023/08/10 07:23:31;;;;;;;;;15.80;14.60;;;;;20.12;47.79;99656.38;5059736;28;9582;-75
2023/08/10 07:26:00;;;;;;;;;16.00;16.00;;;;;20.28;47.43;99655.41;5110140;27;8845;-75
2023/08/10 07:28:29;;;;;;;;;15.60;13.80;;;;;20.22;46.73;99660.25;5092558;28;8849;-77
2023/08/10 07:31:00;;;;;;;;;11.40;11.40;;;;;20.25;46.79;99654.72;5109743;28;9726;-75
2023/08/10 07:33:29;;;;;;;;;12.20;12.20;;;;;20.26;46.84;99656.47;5109822;27;8871;-74
2023/08/10 07:35:59;;;;;;;;;12.80;12.80;;;;;20.36;47.08;99654.94;5109680;28;8829;-76
2023/08/10 07:38:29;;;;;;;;;15.40;15.40;;;;;20.49;46.44;99655.06;5111231;28;8880;-75
2023/08/10 07:40:58;;;;;;;;;12.80;12.80;;;;;20.61;45.90;99656.13;5111327;28;9082;-75
2023/08/10 07:43:27;;;;;;;;;10.80;10.40;;;;;20.79;45.26;99652.34;5111270;28;8999;-74
2023/08/10 07:45:55;;;;;;;;;11.20;11.00;;;;;20.91;45.30;99648.03;5110022;27;8853;-74
2023/08/10 07:48:24;;;;;;;;;11.00;11.00;;;;;21.02;44.72;99647.41;5111509;28;8837;-77
2023/08/10 07:50:54;;;;;;;;;14.40;14.40;;;;;21.22;44.70;99649.66;5092809;28;8865;-76
2023/08/10 07:53:23;;;;;;;;;12.20;12.20;;;;;21.30;44.63;99640.31;5111111;28;8883;-75
2023/08/10 07:55:53;;;;;;;;;18.60;18.00;;;;;21.38;44.81;99644.19;5111533;28;8853;-75
2023/08/10 07:58:22;;;;;;;;;17.00;15.80;;;;;21.43;45.33;99643.91;5110656;28;8860;-77
2023/08/10 08:00:51;;;;;;;;;18.20;17.20;;;;;21.19;45.56;99643.66;5110922;28;8889;-75
2023/08/10 08:03:21;;;;;;;;;14.80;13.80;;;;;20.67;47.26;99648.63;5097320;27;8849;-75
2023/08/10 08:05:50;;;;;;;;;14.40;14.40;;;;;21.08;46.73;99643.47;5112220;28;8875;-76
2023/08/10 08:08:19;;;;;;;;;14.20;13.80;;;;;21.04;46.33;99650.84;5111002;28;8859;-74
2023/08/10 08:10:48;;;;;;;;;14.60;14.60;;;;;20.84;46.55;99649.38;5110656;28;8885;-76
2023/08/10 08:13:19;;;;;;;;;16.80;14.20;;;;;21.10;46.32;99650.44;5109229;28;8860;-75
2023/08/10 08:15:47;;;;;;;;;11.80;11.80;;;;;21.29;46.03;99651.94;5071128;28;8932;-74
2023/08/10 08:18:46;;;;;;;;;16.60;16.60;;;;;20.95;46.77;99651.41;5105150;28;8825;-74
2023/08/10 08:21:16;;;;;;;;;17.20;16.40;;;;;20.58;47.86;99653.66;5088906;28;8856;-76
2023/08/10 08:23:46;;;;;;;;;17.00;17.00;;;;;20.23;47.53;99654.81;5099293;28;8864;-76
2023/08/10 08:26:16;;;;;;;;;19.00;19.00;;;;;19.60;49.57;99658.44;5110245;28;8857;-75
2023/08/10 08:28:48;;;;;;;;;15.00;14.60;;;;;18.69;52.90;99659.84;5108336;28;8872;-76
2023/08/10 08:31:17;;;;;;;;;15.20;13.60;;;;;19.45;51.78;99659.28;5090549;28;9562;-75
2023/08/10 08:33:47;;;;;;;;;14.80;13.80;;;;;19.77;50.09;99651.31;5068901;28;8992;-74
2023/08/10 08:36:15;;;;;;;;;18.40;17.80;;;;;19.12;52.00;99654.88;5087140;28;8892;-77
2023/08/10 08:38:45;;;;;;;;;15.80;15.00;;;;;18.86;52.83;99658.97;5088521;28;8842;-77
2023/08/10 08:41:17;;;;;;;;;7.60;7.20;;;;;19.29;51.99;99661.94;5065934;28;8946;-76
2023/08/10 08:43:49;;;;;;;;;15.20;15.20;;;;;19.31;51.67;99660.06;5070027;28;8868;-76
2023/08/10 08:46:26;;;;;;;;;15.60;14.60;;;;;19.23;51.39;99664.94;5069707;28;8850;-76
2023/08/10 08:48:56;;;;;;;;;15.20;14.00;;;;;19.28;51.85;99669.06;5086942;28;9590;-75
2023/08/10 08:51:25;;;;;;;;;16.60;16.60;;;;;19.76;50.67;99665.56;5086639;28;8872;-76
2023/08/10 08:53:55;;;;;;;;;18.40;18.20;;;;;19.83;50.47;99658.94;5086996;28;8838;-75
2023/08/10 08:56:24;;;;;;;;;14.00;14.00;;;;;19.45;51.24;99664.63;5070029;28;8942;-76
2023/08/10 08:58:54;;;;;;;;;15.60;15.60;;;;;18.91;53.08;99667.56;5069289;28;8880;-75
2023/08/10 09:01:23;;;;;;;;;16.60;15.40;;;;;18.73;54.07;99664.06;5086364;28;9049;-73
2023/08/10 09:03:53;;;;;;;;;15.80;14.40;;;;;19.04;53.26;99668.59;5081209;28;8896;-75
2023/08/10 09:06:21;;;;;;;;;17.00;17.00;;;;;19.00;53.42;99669.72;5108398;28;8893;-74
2023/08/10 09:08:51;;;;;;;;;18.00;17.60;;;;;19.38;51.98;99671.25;5109646;28;8841;-75
2023/08/10 09:11:20;;;;;;;;;19.80;17.60;;;;;19.59;52.31;99667.38;5087909;28;8867;-76
2023/08/10 09:14:07;;;;;;;;;17.80;17.80;;;;;19.19;52.70;99672.25;5117091;27;8849;-73
2023/08/10 09:16:38;;;;;;;;;15.80;15.60;;;;;19.00;53.81;99679.53;5091473;28;8864;-74
2023/08/10 09:19:11;;;;;;;;;18.00;17.20;;;;;19.46;52.87;99677.88;5108743;28;8876;-74
2023/08/10 09:21:40;;;;;;;;;17.80;16.00;;;;;19.89;51.45;99679.94;5089051;28;8900;-75
2023/08/10 09:24:10;;;;;;;;;15.60;15.60;;;;;20.00;49.97;99674.81;5106687;28;8844;-77
2023/08/10 09:26:41;;;;;;;;;16.00;16.00;;;;;20.18;49.83;99680.91;5097563;28;8935;-76
2023/08/10 09:29:11;;;;;;;;;17.00;14.80;;;;;20.52;49.64;99688.72;5073259;28;8992;-76
2023/08/10 09:31:42;;;;;;;;;19.60;19.00;;;;;20.43;49.98;99687.50;5109402;27;8865;-75
2023/08/10 09:34:13;;;;;;;;;23.00;19.80;;;;;19.81;51.06;99691.03;5108399;28;8864;-75
2023/08/10 09:36:53;;;;;;;;;18.00;17.60;;;;;19.43;51.81;99691.38;5091223;28;9001;-73
2023/08/10 09:39:22;;;;;;;;;19.40;17.40;;;;;19.40;52.69;99686.19;5108940;28;8861;-74
2023/08/10 09:41:55;;;;;;;;;19.60;16.40;;;;;19.56;52.84;99690.72;5109555;28;8853;-73
2023/08/10 09:44:25;;;;;;;;;19.80;18.00;;;;;18.98;53.73;99695.59;5106705;28;8835;-74
2023/08/10 09:46:58;;;;;;;;;17.00;17.00;;;;;18.97;53.92;99701.88;5097981;28;8882;-75
2023/08/10 09:49:27;;;;;;;;;20.00;19.00;;;;;19.63;52.70;99697.41;5072789;28;8948;-74
2023/08/10 09:51:59;;;;;;;;;22.80;22.80;;;;;19.55;51.71;99695.16;5065916;28;8836;-72
2023/08/10 09:54:29;;;;;;;;;15.80;15.80;;;;;19.27;52.96;99698.47;5106107;28;8839;-77
2023/08/10 09:56:58;;;;;;;;;19.60;17.60;;;;;19.89;52.15;99698.59;5073113;28;8905;-74
2023/08/10 09:59:29;;;;;;;;;18.60;18.00;;;;;19.72;51.20;99688.88;5073448;28;8855;-73
2023/08/10 10:01:59;;;;;;;;;20.20;20.20;;;;;19.43;52.30;99688.69;5106303;28;8856;-74
2023/08/10 10:04:29;;;;;;;;;16.20;16.00;;;;;19.40;52.22;99688.84;5106542;28;8868;-75
2023/08/10 10:06:59;;;;;;;;;18.60;16.20;;;;;19.30;52.91;99685.00;5088035;28;8980;-74
2023/08/10 10:09:31;;;;;;;;;18.20;17.80;;;;;19.60;52.35;99690.44;5104538;28;8836;-73
2023/08/10 10:12:01;;;;;;;;;16.20;16.20;;;;;20.21;51.06;99688.72;5102161;28;8919;-72
2023/08/10 10:14:32;;;;;;;;;17.00;17.00;;;;;20.51;49.43;99681.69;5088962;28;8851;-73
2023/08/10 10:17:03;;;;;;;;;21.80;18.40;;;;;20.83;49.39;99687.75;5089235;28;8986;-74
2023/08/10 10:19:32;;;;;;;;;15.60;15.60;;;;;20.97;47.89;99692.25;5089356;28;8883;-72
2023/08/10 10:22:01;;;;;;;;;15.40;14.80;;;;;20.53;47.78;99682.44;5108863;28;8879;-73
2023/08/10 10:24:32;;;;;;;;;13.00;13.00;;;;;20.88;48.20;99688.31;5109262;28;8838;-72
2023/08/10 10:27:05;;;;;;;;;12.80;12.80;;;;;21.28;46.14;99680.50;5101477;27;9645;-74
2023/08/10 10:29:41;;;;;;;;;15.80;15.20;;;;;20.96;45.93;99679.88;5097622;28;8845;-73
2023/08/10 10:32:14;;;;;;;;;15.00;15.00;;;;;21.19;45.87;99681.09;5090558;28;8873;-77
2023/08/10 10:34:44;;;;;;;;;12.80;12.80;;;;;21.63;46.35;99680.94;5107307;28;8864;-73
2023/08/10 10:37:15;;;;;;;;;15.80;15.80;;;;;21.94;44.70;99678.94;5107513;28;8914;-73
2023/08/10 10:39:46;;;;;;;;;14.40;14.00;;;;;22.16;43.45;99675.66;5106753;28;8837;-73
2023/08/10 10:42:18;;;;;;;;;14.00;13.20;;;;;22.55;43.20;99671.25;5089986;28;8881;-73
2023/08/10 10:45:03;;;;;;;;;15.60;13.60;;;;;22.96;41.42;99667.53;5108310;28;8865;-74
2023/08/10 10:47:37;;;;;;;;;14.80;14.80;;;;;23.16;41.08;99668.78;5108526;28;8902;-76
2023/08/10 10:50:18;;;;;;;;;14.00;14.00;;;;;23.39;40.17;99664.47;5108520;28;8845;-75
2023/08/10 10:52:54;;;;;;;;;12.20;12.20;;;;;21.68;42.08;99664.59;5109549;27;8857;-73
2023/08/10 10:55:24;;;;;;;;;12.20;12.00;;;;;21.70;42.26;99656.47;5112606;27;8857;-73
2023/08/10 10:57:54;;;;;;;;;12.20;12.20;;;;;21.61;42.57;99657.91;5114314;27;8914;-76
2023/08/10 11:00:25;;;;;;;;;13.80;13.20;;;;;21.88;41.89;99659.72;5094387;28;8883;-76
2023/08/10 11:02:55;;;;;;;;;11.40;11.40;;;;;22.50;41.87;99656.47;5110977;28;8849;-74
2023/08/10 11:05:24;;;;;;;;;9.80;9.40;;;;;22.73;38.96;99662.91;5113537;28;8841;-72
2023/08/10 11:07:53;;;;;;;;;12.60;12.60;;;;;22.68;38.97;99657.03;5115286;28;8877;-73
2023/08/10 11:10:23;;;;;;;;;14.20;13.00;;;;;22.79;38.00;99655.28;5093807;28;8863;-74
2023/08/10 11:12:52;;;;;;;;;12.80;12.80;;;;;22.81;37.31;99655.19;5114144;27;8865;-73
2023/08/10 11:15:25;;;;;;;;;13.80;13.60;;;;;21.77;40.25;99645.25;5077564;28;8861;-73
2023/08/10 11:17:54;;;;;;;;;16.60;15.80;;;;;22.49;40.52;99650.25;5129445;27;8811;-79
2023/08/10 11:20:24;;;;;;;;;20.20;19.20;;;;;22.96;39.47;99638.06;5110429;28;9633;-74
2023/08/10 11:22:54;;;;;;;;;12.00;12.00;;;;;23.00;38.80;99636.00;5110760;28;9605;-73
2023/08/10 11:25:24;;;;;;;;;14.00;13.40;;;;;23.08;38.29;99640.81;5127134;27;8833;-75
2023/08/10 11:27:56;;;;;;;;;11.80;11.40;;;;;22.39;38.80;99642.00;5110543;28;8865;-73
2023/08/10 11:30:27;;;;;;;;;14.00;13.60;;;;;22.83;38.57;99642.53;5110199;28;8930;-74
2023/08/10 11:32:56;;;;;;;;;13.00;13.00;;;;;23.42;37.43;99638.38;5108203;28;8861;-72
2023/08/10 11:35:26;;;;;;;;;12.60;11.00;;;;;23.89;36.47;99636.69;5052084;28;8837;-72
2023/08/10 11:37:54;;;;;;;;;11.00;11.00;;;;;24.23;35.37;99636.84;5051576;28;8851;-73
2023/08/10 11:40:24;;;;;;;;;13.00;13.00;;;;;24.66;35.48;99638.84;5036644;28;8868;-73
2023/08/10 11:43:07;;;;;;;;;13.40;10.00;;;;;25.32;33.95;99636.31;5019471;28;8861;-74